createdAt,value
2017-09-09T00:00:36.925Z,993.38
2017-09-09T00:01:36.919Z,993.32
2017-09-09T00:02:36.914Z,993.39
2017-09-09T00:03:36.909Z,993.37
2017-09-09T00:04:36.897Z,993.37
2017-09-09T00:05:36.891Z,993.40
2017-09-09T00:06:36.885Z,993.38
2017-09-09T00:07:36.879Z,993.35
2017-09-09T00:08:36.874Z,993.38
2017-09-09T00:09:36.867Z,993.29
2017-09-09T00:10:36.862Z,993.33
2017-09-09T00:11:36.856Z,993.34
2017-09-09T00:12:36.853Z,993.33
2017-09-09T00:13:36.848Z,993.28
2017-09-09T00:14:36.843Z,993.32
2017-09-09T00:15:36.836Z,993.30
2017-09-09T00:16:36.829Z,993.31
2017-09-09T00:17:36.824Z,993.31
2017-09-09T00:18:36.818Z,993.23
2017-09-09T00:19:36.814Z,993.24
2017-09-09T00:20:36.801Z,993.24
2017-09-09T00:21:36.796Z,993.18
2017-09-09T00:22:36.790Z,993.23
2017-09-09T00:23:36.786Z,993.15
2017-09-09T00:24:36.778Z,993.20
2017-09-09T00:25:36.773Z,993.17
2017-09-09T00:26:36.767Z,993.18
2017-09-09T00:27:36.760Z,993.17
2017-09-09T00:28:36.759Z,993.11
2017-09-09T00:29:36.752Z,993.14
2017-09-09T00:30:36.746Z,993.14
2017-09-09T00:31:36.741Z,993.12
2017-09-09T00:32:36.734Z,993.13
2017-09-09T00:33:36.728Z,993.12
2017-09-09T00:34:36.723Z,993.08
2017-09-09T00:35:36.717Z,993.08
2017-09-09T00:36:36.707Z,993.13
2017-09-09T00:37:36.700Z,993.09
2017-09-09T00:38:36.695Z,993.10
2017-09-09T00:39:36.690Z,993.08
2017-09-09T00:40:36.683Z,993.04
2017-09-09T00:41:36.676Z,993.07
2017-09-09T00:42:36.670Z,993.05
2017-09-09T00:43:36.665Z,993.06
2017-09-09T00:44:36.662Z,993.06
2017-09-09T00:45:36.661Z,993.05
2017-09-09T00:46:36.651Z,993.08
2017-09-09T00:47:36.646Z,993.04
2017-09-09T00:48:36.635Z,993.02
2017-09-09T00:49:36.628Z,993.04
2017-09-09T00:50:36.624Z,993.05
2017-09-09T00:51:36.617Z,993.01
2017-09-09T00:52:36.614Z,993.00
2017-09-09T00:53:36.609Z,992.97
2017-09-09T00:54:36.602Z,992.96
2017-09-09T00:55:36.599Z,992.95
2017-09-09T00:56:36.591Z,993.04
2017-09-09T00:57:36.585Z,992.87
2017-09-09T00:58:36.578Z,992.87
2017-09-09T00:59:36.573Z,992.88
2017-09-09T01:00:36.562Z,992.85
2017-09-09T01:01:36.556Z,992.85
2017-09-09T01:02:36.551Z,992.82
2017-09-09T01:03:36.546Z,992.84
2017-09-09T01:04:36.540Z,992.84
2017-09-09T01:05:36.534Z,992.81
2017-09-09T01:06:36.526Z,992.78
2017-09-09T01:07:36.521Z,992.74
2017-09-09T01:08:36.520Z,992.78
2017-09-09T01:09:36.513Z,992.75
2017-09-09T01:10:36.509Z,992.73
2017-09-09T01:11:36.501Z,992.66
2017-09-09T01:12:36.498Z,992.71
2017-09-09T01:13:36.493Z,992.67
2017-09-09T01:14:36.484Z,992.64
2017-09-09T01:15:36.477Z,992.65
2017-09-09T01:16:36.467Z,992.63
2017-09-09T01:17:36.461Z,992.62
2017-09-09T01:18:36.455Z,992.61
2017-09-09T01:19:36.449Z,992.63
2017-09-09T01:20:36.442Z,992.58
2017-09-09T01:21:36.436Z,992.56
2017-09-09T01:22:36.431Z,992.48
2017-09-09T01:23:36.426Z,992.51
2017-09-09T01:24:36.422Z,992.59
2017-09-09T01:25:36.416Z,992.50
2017-09-09T01:26:36.411Z,992.52
2017-09-09T01:27:36.405Z,992.50
2017-09-09T01:28:36.398Z,992.48
2017-09-09T01:29:36.393Z,992.53
2017-09-09T01:30:36.386Z,992.56
2017-09-09T01:31:36.380Z,992.60
2017-09-09T01:32:36.370Z,992.68
2017-09-09T01:33:36.364Z,992.64
2017-09-09T01:34:36.357Z,992.62
2017-09-09T01:35:36.352Z,992.62
2017-09-09T01:36:36.344Z,992.57
2017-09-09T01:37:36.339Z,992.61
2017-09-09T01:38:36.336Z,992.61
2017-09-09T01:39:36.327Z,992.57
2017-09-09T01:40:36.324Z,992.59
2017-09-09T01:41:36.318Z,992.60
2017-09-09T01:42:36.312Z,992.64
2017-09-09T01:43:36.307Z,992.71
2017-09-09T01:44:36.299Z,992.63
2017-09-09T01:45:36.294Z,992.64
2017-09-09T01:46:36.292Z,992.63
2017-09-09T01:47:36.282Z,992.59
2017-09-09T01:48:36.272Z,992.55
2017-09-09T01:49:36.265Z,992.58
2017-09-09T01:50:36.259Z,992.52
2017-09-09T01:51:36.253Z,992.53
2017-09-09T01:52:36.250Z,992.49
2017-09-09T01:53:36.244Z,992.51
2017-09-09T01:54:36.238Z,992.46
2017-09-09T01:55:36.232Z,992.47
2017-09-09T01:56:36.223Z,992.42
2017-09-09T01:57:36.216Z,992.40
2017-09-09T01:58:36.210Z,992.38
2017-09-09T01:59:36.204Z,992.35
2017-09-09T02:00:36.197Z,992.40
2017-09-09T02:01:36.191Z,992.39
2017-09-09T02:02:36.186Z,992.37
2017-09-09T02:03:36.180Z,992.39
2017-09-09T02:04:36.177Z,992.33
2017-09-09T02:05:36.171Z,992.27
2017-09-09T02:06:36.165Z,992.29
2017-09-09T02:07:36.159Z,992.27
2017-09-09T02:08:36.153Z,992.19
2017-09-09T02:09:36.147Z,992.22
2017-09-09T02:10:36.140Z,992.17
2017-09-09T02:11:36.135Z,992.23
2017-09-09T02:12:36.126Z,992.17
2017-09-09T02:13:36.119Z,992.16
2017-09-09T02:14:36.112Z,992.17
2017-09-09T02:15:36.106Z,992.18
2017-09-09T02:16:36.099Z,992.17
2017-09-09T02:17:36.093Z,992.19
2017-09-09T02:18:36.088Z,992.16
2017-09-09T02:19:36.081Z,992.19
2017-09-09T02:20:36.081Z,992.15
2017-09-09T02:21:36.074Z,992.13
2017-09-09T02:22:36.067Z,992.11
2017-09-09T02:23:36.062Z,992.07
2017-09-09T02:24:36.055Z,992.08
2017-09-09T02:25:36.049Z,992.07
2017-09-09T02:26:36.044Z,992.08
2017-09-09T02:27:36.037Z,992.03
2017-09-09T02:28:36.027Z,992.02
2017-09-09T02:29:36.020Z,991.98
2017-09-09T02:30:36.015Z,992.01
2017-09-09T02:31:36.013Z,992.00
2017-09-09T02:32:36.002Z,991.94
2017-09-09T02:33:35.995Z,991.96
2017-09-09T02:34:35.990Z,991.91
2017-09-09T02:35:35.984Z,991.88
2017-09-09T02:36:35.981Z,991.88
2017-09-09T02:37:35.977Z,991.86
2017-09-09T02:38:35.970Z,991.87
2017-09-09T02:39:35.966Z,991.86
2017-09-09T02:40:35.957Z,991.90
2017-09-09T02:41:35.952Z,991.84
2017-09-09T02:42:35.946Z,991.84
2017-09-09T02:43:35.941Z,991.83
2017-09-09T02:44:35.930Z,991.87
2017-09-09T02:45:35.923Z,991.86
2017-09-09T02:46:35.917Z,991.81
2017-09-09T02:47:35.910Z,991.87
2017-09-09T02:48:35.904Z,991.78
2017-09-09T02:49:35.898Z,991.77
2017-09-09T02:50:35.892Z,991.71
2017-09-09T02:51:35.886Z,991.79
2017-09-09T02:52:35.884Z,991.79
2017-09-09T02:53:35.877Z,991.72
2017-09-09T02:54:35.872Z,991.79
2017-09-09T02:55:35.866Z,991.73
2017-09-09T02:56:35.855Z,991.68
2017-09-09T02:57:35.850Z,991.66
2017-09-09T02:58:35.843Z,991.61
2017-09-09T02:59:35.838Z,991.59
2017-09-09T03:00:35.835Z,991.57
2017-09-09T03:01:35.831Z,991.62
2017-09-09T03:02:35.826Z,991.58
2017-09-09T03:03:35.817Z,991.56
2017-09-09T03:04:35.811Z,991.60
2017-09-09T03:05:35.804Z,991.56
2017-09-09T03:06:35.799Z,991.55
2017-09-09T03:07:35.793Z,991.54
2017-09-09T03:08:35.783Z,991.58
2017-09-09T03:09:35.776Z,991.53
2017-09-09T03:10:35.770Z,991.52
2017-09-09T03:11:35.763Z,991.47
2017-09-09T03:12:35.757Z,991.41
2017-09-09T03:13:35.752Z,991.43
2017-09-09T03:14:35.746Z,991.43
2017-09-09T03:15:35.740Z,991.47
2017-09-09T03:16:35.737Z,991.50
2017-09-09T03:17:35.732Z,991.43
2017-09-09T03:18:35.725Z,991.42
2017-09-09T03:19:35.720Z,991.38
2017-09-09T03:20:35.714Z,991.34
2017-09-09T03:21:35.708Z,991.33
2017-09-09T03:22:35.702Z,991.32
2017-09-09T03:23:35.696Z,991.30
2017-09-09T03:24:35.684Z,991.33
2017-09-09T03:25:35.678Z,991.24
2017-09-09T03:26:35.704Z,991.23
2017-09-09T03:27:35.668Z,991.22
2017-09-09T03:28:35.660Z,991.19
2017-09-09T03:29:35.654Z,991.20
2017-09-09T03:30:35.650Z,991.18
2017-09-09T03:31:35.643Z,991.11
2017-09-09T03:32:35.640Z,991.23
2017-09-09T03:33:35.634Z,991.25
2017-09-09T03:34:35.629Z,991.21
2017-09-09T03:35:35.623Z,991.21
2017-09-09T03:36:35.617Z,991.23
2017-09-09T03:37:35.609Z,991.20
2017-09-09T03:38:35.604Z,991.15
2017-09-09T03:39:35.598Z,991.16
2017-09-09T03:40:35.615Z,991.20
2017-09-09T03:41:35.581Z,991.19
2017-09-09T03:42:35.576Z,991.16
2017-09-09T03:43:35.569Z,991.16
2017-09-09T03:44:35.562Z,991.13
2017-09-09T03:45:35.555Z,991.13
2017-09-09T03:46:35.550Z,991.12
2017-09-09T03:47:35.545Z,991.11
2017-09-09T03:48:35.541Z,991.06
2017-09-09T03:49:35.535Z,991.11
2017-09-09T03:50:35.530Z,991.11
2017-09-09T03:51:35.523Z,991.09
2017-09-09T03:52:35.516Z,991.07
2017-09-09T03:53:35.511Z,991.12
2017-09-09T03:54:35.504Z,991.05
2017-09-09T03:55:35.498Z,991.02
2017-09-09T03:56:35.486Z,990.98
2017-09-09T03:57:35.481Z,990.99
2017-09-09T03:58:35.475Z,991.00
2017-09-09T03:59:35.468Z,991.02
2017-09-09T04:00:35.461Z,991.05
2017-09-09T04:01:35.456Z,991.00
2017-09-09T04:02:35.449Z,990.96
2017-09-09T04:03:35.443Z,991.06
2017-09-09T04:04:35.440Z,991.02
2017-09-09T04:05:35.434Z,990.97
2017-09-09T04:06:35.428Z,990.92
2017-09-09T04:07:35.421Z,990.88
2017-09-09T04:08:35.415Z,990.95
2017-09-09T04:09:35.409Z,990.94
2017-09-09T04:10:35.403Z,990.95
2017-09-09T04:11:35.396Z,990.91
2017-09-09T04:12:35.385Z,990.87
2017-09-09T04:13:35.380Z,990.87
2017-09-09T04:14:35.374Z,990.85
2017-09-09T04:15:35.367Z,990.80
2017-09-09T04:16:35.361Z,990.83
2017-09-09T04:17:35.353Z,990.84
2017-09-09T04:18:35.347Z,990.80
2017-09-09T04:19:35.341Z,990.78
2017-09-09T04:20:35.338Z,990.72
2017-09-09T04:21:35.334Z,990.74
2017-09-09T04:22:35.326Z,990.73
2017-09-09T04:23:35.321Z,990.67
2017-09-09T04:24:35.314Z,990.71
2017-09-09T04:25:35.307Z,990.70
2017-09-09T04:26:35.302Z,990.74
2017-09-09T04:27:35.295Z,990.75
2017-09-09T04:28:35.284Z,990.76
2017-09-09T04:29:35.278Z,990.76
2017-09-09T04:30:35.272Z,990.75
2017-09-09T04:31:35.266Z,990.83
2017-09-09T04:32:35.259Z,990.74
2017-09-09T04:33:35.252Z,990.87
2017-09-09T04:34:35.248Z,990.82
2017-09-09T04:35:35.240Z,990.82
2017-09-09T04:36:35.237Z,990.84
2017-09-09T04:37:35.232Z,990.85
2017-09-09T04:38:35.226Z,990.78
2017-09-09T04:39:35.219Z,990.84
2017-09-09T04:40:35.213Z,990.79
2017-09-09T04:41:35.207Z,990.77
2017-09-09T04:42:35.204Z,990.80
2017-09-09T04:43:35.194Z,990.86
2017-09-09T04:44:35.184Z,990.84
2017-09-09T04:45:35.178Z,990.92
2017-09-09T04:46:35.171Z,990.95
2017-09-09T04:47:35.171Z,990.92
2017-09-09T04:48:35.163Z,990.89
2017-09-09T04:49:35.152Z,990.88
2017-09-09T04:50:35.146Z,990.88
2017-09-09T04:51:35.141Z,990.90
2017-09-09T04:52:35.137Z,990.91
2017-09-09T04:53:35.132Z,990.88
2017-09-09T04:54:35.126Z,990.89
2017-09-09T04:55:35.119Z,990.83
2017-09-09T04:56:35.112Z,990.83
2017-09-09T04:57:35.107Z,990.85
2017-09-09T04:58:35.100Z,990.90
2017-09-09T04:59:35.094Z,990.86
2017-09-09T05:00:35.083Z,990.87
2017-09-09T05:01:35.077Z,990.87
2017-09-09T05:02:35.071Z,990.85
2017-09-09T05:03:35.064Z,990.86
2017-09-09T05:04:35.061Z,990.86
2017-09-09T05:05:35.059Z,990.84
2017-09-09T05:06:35.050Z,990.81
2017-09-09T05:07:35.044Z,990.85
2017-09-09T05:08:35.033Z,990.83
2017-09-09T05:09:35.026Z,990.88
2017-09-09T05:10:35.022Z,990.94
2017-09-09T05:11:35.014Z,990.95
2017-09-09T05:12:35.008Z,990.88
2017-09-09T05:13:35.001Z,990.90
2017-09-09T05:14:34.995Z,990.86
2017-09-09T05:15:34.991Z,990.83
2017-09-09T05:16:34.990Z,990.93
2017-09-09T05:17:34.980Z,990.92
2017-09-09T05:18:34.974Z,990.97
2017-09-09T05:19:34.969Z,990.94
2017-09-09T05:20:34.962Z,990.88
2017-09-09T05:21:34.955Z,990.86
2017-09-09T05:22:34.951Z,990.93
2017-09-09T05:23:34.943Z,990.96
2017-09-09T05:24:34.932Z,990.95
2017-09-09T05:25:34.927Z,990.96
2017-09-09T05:26:34.920Z,990.98
2017-09-09T05:27:34.914Z,990.97
2017-09-09T05:28:34.906Z,991.09
2017-09-09T05:29:34.901Z,991.00
2017-09-09T05:30:34.896Z,991.01
2017-09-09T05:31:34.888Z,991.07
2017-09-09T05:32:34.885Z,991.00
2017-09-09T05:33:34.879Z,991.00
2017-09-09T05:34:34.873Z,991.02
2017-09-09T05:35:34.868Z,990.97
2017-09-09T05:36:34.860Z,991.05
2017-09-09T05:37:34.853Z,991.02
2017-09-09T05:38:34.849Z,991.06
2017-09-09T05:39:34.842Z,991.03
2017-09-09T05:40:34.831Z,991.05
2017-09-09T05:41:34.824Z,990.99
2017-09-09T05:42:34.818Z,991.01
2017-09-09T05:43:34.813Z,990.98
2017-09-09T05:44:34.806Z,991.00
2017-09-09T05:45:34.802Z,991.04
2017-09-09T05:46:34.794Z,991.07
2017-09-09T05:47:34.787Z,991.04
2017-09-09T05:48:34.784Z,991.11
2017-09-09T05:49:34.779Z,991.08
2017-09-09T05:50:34.772Z,991.08
2017-09-09T05:51:34.766Z,991.12
2017-09-09T05:52:34.759Z,991.11
2017-09-09T05:53:34.752Z,991.08
2017-09-09T05:54:34.746Z,991.07
2017-09-09T05:55:34.741Z,991.07
2017-09-09T05:56:34.729Z,991.05
2017-09-09T05:57:34.724Z,991.03
2017-09-09T05:58:34.719Z,991.05
2017-09-09T05:59:34.712Z,991.04
2017-09-09T06:00:34.705Z,991.00
2017-09-09T06:01:34.700Z,991.01
2017-09-09T06:02:34.693Z,991.02
2017-09-09T06:03:34.688Z,990.99
2017-09-09T06:04:34.685Z,991.03
2017-09-09T06:05:34.679Z,991.02
2017-09-09T06:06:34.671Z,991.01
2017-09-09T06:07:34.666Z,990.97
2017-09-09T06:08:34.656Z,990.99
2017-09-09T06:09:34.648Z,990.97
2017-09-09T06:10:34.643Z,990.94
2017-09-09T06:11:34.637Z,991.01
2017-09-09T06:12:34.634Z,990.93
2017-09-09T06:13:34.628Z,991.00
2017-09-09T06:14:34.623Z,991.00
2017-09-09T06:15:34.616Z,991.03
2017-09-09T06:16:34.609Z,990.96
2017-09-09T06:17:34.602Z,990.94
2017-09-09T06:18:34.599Z,991.02
2017-09-09T06:19:34.591Z,990.95
2017-09-09T06:20:34.579Z,991.03
2017-09-09T06:21:34.575Z,991.00
2017-09-09T06:22:34.568Z,991.10
2017-09-09T06:23:34.563Z,991.03
2017-09-09T06:24:34.556Z,991.09
2017-09-09T06:25:34.550Z,991.08
2017-09-09T06:26:34.543Z,991.11
2017-09-09T06:27:34.537Z,991.09
2017-09-09T06:28:34.535Z,991.03
2017-09-09T06:29:34.529Z,991.02
2017-09-09T06:30:34.523Z,991.02
2017-09-09T06:31:34.517Z,991.03
2017-09-09T06:32:34.510Z,991.04
2017-09-09T06:33:34.505Z,991.03
2017-09-09T06:34:34.502Z,991.02
2017-09-09T06:35:34.527Z,990.98
2017-09-09T06:36:34.481Z,991.02
2017-09-09T06:37:34.475Z,991.00
2017-09-09T06:38:34.470Z,990.94
2017-09-09T06:39:34.464Z,990.92
2017-09-09T06:40:34.481Z,990.89
2017-09-09T06:41:34.450Z,990.95
2017-09-09T06:42:34.444Z,990.93
2017-09-09T06:43:34.440Z,990.92
2017-09-09T06:44:34.436Z,990.96
2017-09-09T06:45:34.430Z,990.93
2017-09-09T06:46:34.425Z,990.92
2017-09-09T06:47:34.418Z,990.95
2017-09-09T06:48:34.412Z,990.89
2017-09-09T06:49:34.405Z,990.91
2017-09-09T06:50:34.400Z,990.89
2017-09-09T06:51:34.393Z,990.92
2017-09-09T06:52:34.383Z,990.88
2017-09-09T06:53:34.376Z,990.88
2017-09-09T06:54:34.370Z,990.87
2017-09-09T06:55:34.364Z,990.89
2017-09-09T06:56:34.357Z,990.89
2017-09-09T06:57:34.352Z,990.86
2017-09-09T06:58:34.346Z,990.87
2017-09-09T06:59:34.339Z,990.92
2017-09-09T07:00:34.336Z,990.93
2017-09-09T07:01:34.329Z,990.86
2017-09-09T07:02:34.324Z,990.86
2017-09-09T07:03:34.320Z,990.84
2017-09-09T07:04:34.312Z,990.80
2017-09-09T07:05:34.305Z,990.86
2017-09-09T07:06:34.299Z,990.93
2017-09-09T07:07:34.293Z,990.94
2017-09-09T07:08:34.281Z,990.94
2017-09-09T07:09:34.277Z,990.90
2017-09-09T07:10:34.270Z,990.93
2017-09-09T07:11:34.263Z,990.95
2017-09-09T07:12:34.261Z,990.90
2017-09-09T07:13:34.256Z,990.95
2017-09-09T07:14:34.249Z,990.92
2017-09-09T07:15:34.243Z,990.94
2017-09-09T07:16:34.232Z,990.91
2017-09-09T07:17:34.227Z,990.88
2017-09-09T07:18:34.220Z,990.92
2017-09-09T07:19:34.215Z,990.98
2017-09-09T07:20:34.237Z,990.95
2017-09-09T07:21:34.202Z,990.97
2017-09-09T07:22:34.200Z,990.98
2017-09-09T07:23:34.190Z,991.00
2017-09-09T07:24:34.187Z,990.94
2017-09-09T07:25:34.180Z,991.02
2017-09-09T07:26:34.175Z,991.04
2017-09-09T07:27:34.170Z,991.08
2017-09-09T07:28:34.162Z,991.08
2017-09-09T07:29:34.157Z,991.11
2017-09-09T07:30:34.151Z,991.13
2017-09-09T07:31:34.145Z,991.10
2017-09-09T07:32:34.134Z,991.16
2017-09-09T07:33:34.128Z,991.13
2017-09-09T07:34:34.123Z,991.07
2017-09-09T07:35:34.117Z,991.10
2017-09-09T07:36:34.110Z,991.15
2017-09-09T07:37:34.105Z,991.17
2017-09-09T07:38:34.103Z,991.17
2017-09-09T07:39:34.093Z,991.17
2017-09-09T07:40:34.091Z,991.21
2017-09-09T07:41:34.084Z,991.23
2017-09-09T07:42:34.079Z,991.22
2017-09-09T07:43:34.073Z,991.27
2017-09-09T07:44:34.066Z,991.25
2017-09-09T07:45:34.060Z,991.33
2017-09-09T07:46:34.053Z,991.29
2017-09-09T07:47:34.049Z,991.34
2017-09-09T07:48:34.038Z,991.35
2017-09-09T07:49:34.032Z,991.33
2017-09-09T07:50:34.027Z,991.30
2017-09-09T07:51:34.020Z,991.37
2017-09-09T07:52:34.013Z,991.37
2017-09-09T07:53:34.008Z,991.45
2017-09-09T07:54:34.001Z,991.44
2017-09-09T07:55:33.995Z,991.55
2017-09-09T07:56:33.993Z,991.58
2017-09-09T07:57:33.987Z,991.60
2017-09-09T07:58:33.981Z,991.65
2017-09-09T07:59:33.978Z,991.69
2017-09-09T08:00:33.969Z,991.66
2017-09-09T08:01:33.963Z,991.64
2017-09-09T08:02:33.958Z,991.71
2017-09-09T08:03:33.952Z,991.75
2017-09-09T08:04:33.941Z,991.75
2017-09-09T08:05:33.935Z,991.72
2017-09-09T08:06:33.930Z,991.77
2017-09-09T08:07:33.936Z,991.66
2017-09-09T08:08:33.919Z,991.63
2017-09-09T08:09:33.915Z,991.61
2017-09-09T08:10:33.907Z,991.69
2017-09-09T08:11:33.903Z,991.68
2017-09-09T08:12:33.900Z,991.69
2017-09-09T08:13:33.896Z,991.71
2017-09-09T08:14:33.890Z,991.71
2017-09-09T08:15:33.885Z,991.75
2017-09-09T08:16:33.877Z,991.76
2017-09-09T08:17:33.873Z,991.77
2017-09-09T08:18:33.867Z,991.73
2017-09-09T08:19:33.863Z,991.74
2017-09-09T08:20:33.852Z,991.80
2017-09-09T08:21:33.847Z,991.79
2017-09-09T08:22:33.842Z,991.81
2017-09-09T08:23:33.837Z,991.91
2017-09-09T08:24:33.833Z,991.88
2017-09-09T08:25:33.831Z,991.82
2017-09-09T08:26:33.822Z,991.96
2017-09-09T08:27:33.815Z,991.99
2017-09-09T08:28:33.813Z,992.06
2017-09-09T08:29:33.808Z,992.02
2017-09-09T08:30:33.804Z,992.02
2017-09-09T08:31:33.799Z,992.05
2017-09-09T08:32:33.793Z,992.03
2017-09-09T08:33:33.789Z,992.08
2017-09-09T08:34:33.782Z,992.05
2017-09-09T08:35:33.778Z,992.07
2017-09-09T08:36:33.767Z,992.11
2017-09-09T08:37:33.762Z,992.11
2017-09-09T08:38:33.757Z,992.13
2017-09-09T08:39:33.752Z,992.13
2017-09-09T08:40:33.745Z,992.16
2017-09-09T08:41:33.740Z,992.20
2017-09-09T08:42:33.735Z,992.17
2017-09-09T08:43:33.731Z,992.20
2017-09-09T08:44:33.729Z,992.22
2017-09-09T08:45:33.731Z,992.28
2017-09-09T08:46:33.718Z,992.38
2017-09-09T08:47:33.713Z,992.46
2017-09-09T08:48:33.706Z,992.41
2017-09-09T08:49:33.700Z,992.43
2017-09-09T08:50:33.695Z,992.44
2017-09-09T08:51:33.696Z,992.47
2017-09-09T08:52:33.680Z,992.50
2017-09-09T08:53:33.674Z,992.57
2017-09-09T08:54:33.669Z,992.58
2017-09-09T08:55:33.665Z,992.57
2017-09-09T08:56:33.658Z,992.61
2017-09-09T08:57:33.655Z,992.62
2017-09-09T08:58:33.648Z,992.63
2017-09-09T08:59:33.646Z,992.74
2017-09-09T09:00:33.644Z,992.73
2017-09-09T09:01:33.637Z,992.66
2017-09-09T09:02:33.635Z,992.96
2017-09-09T09:03:33.629Z,992.97
2017-09-09T09:04:33.624Z,992.91
2017-09-09T09:05:33.621Z,992.91
2017-09-09T09:06:33.617Z,993.04
2017-09-09T09:07:33.613Z,993.00
2017-09-09T09:08:33.604Z,993.25
2017-09-09T09:09:33.601Z,992.99
2017-09-09T09:10:33.601Z,993.24
2017-09-09T09:11:33.598Z,993.06
2017-09-09T09:12:33.595Z,993.06
2017-09-09T09:13:33.610Z,993.00
2017-09-09T09:14:33.590Z,993.08
2017-09-09T09:15:33.589Z,992.95
2017-09-09T09:16:33.591Z,993.07
2017-09-09T09:17:33.592Z,992.99
2017-09-09T09:18:33.589Z,993.10
2017-09-09T09:19:33.587Z,993.15
2017-09-09T09:20:33.581Z,993.08
2017-09-09T09:21:33.579Z,993.04
2017-09-09T09:22:33.583Z,992.98
2017-09-09T09:23:33.602Z,993.05
2017-09-09T09:24:33.589Z,992.98
2017-09-09T09:25:33.579Z,993.04
2017-09-09T09:26:33.577Z,993.12
2017-09-09T09:27:33.581Z,993.05
2017-09-09T09:28:33.575Z,993.13
2017-09-09T09:29:33.586Z,993.10
2017-09-09T09:30:33.573Z,993.25
2017-09-09T09:31:33.595Z,993.30
2017-09-09T09:32:33.563Z,993.32
2017-09-09T09:33:33.564Z,993.92
2017-09-09T09:34:33.563Z,993.40
2017-09-09T09:35:33.562Z,993.98
2017-09-09T09:36:33.559Z,993.72
2017-09-09T09:37:33.561Z,994.00
2017-09-09T09:38:33.560Z,994.28
2017-09-09T09:39:33.560Z,994.10
2017-09-09T09:40:33.565Z,994.36
2017-09-09T09:41:33.565Z,993.25
2017-09-09T09:42:33.572Z,993.46
2017-09-09T09:43:33.570Z,993.45
2017-09-09T09:44:33.571Z,993.34
2017-09-09T09:45:33.575Z,993.37
2017-09-09T09:46:33.577Z,993.21
2017-09-09T09:47:33.581Z,993.26
2017-09-09T09:48:33.579Z,993.49
2017-09-09T09:49:33.586Z,993.32
2017-09-09T09:50:33.587Z,993.35
2017-09-09T09:51:33.588Z,993.31
2017-09-09T09:52:33.591Z,993.28
2017-09-09T09:53:33.594Z,993.18
2017-09-09T09:54:33.597Z,993.22
2017-09-09T09:55:33.601Z,993.22
2017-09-09T09:56:33.606Z,993.29
2017-09-09T09:57:33.607Z,993.27
2017-09-09T09:58:33.612Z,993.31
2017-09-09T09:59:33.612Z,993.40
2017-09-09T10:00:33.614Z,993.30
2017-09-09T10:01:33.617Z,993.40
2017-09-09T10:02:33.617Z,993.30
2017-09-09T10:03:33.619Z,993.38
2017-09-09T10:04:33.617Z,993.54
2017-09-09T10:05:33.617Z,993.55
2017-09-09T10:06:33.620Z,993.86
2017-09-09T10:07:33.619Z,993.54
2017-09-09T10:08:33.620Z,993.47
2017-09-09T10:09:33.621Z,993.45
2017-09-09T10:10:33.624Z,993.44
2017-09-09T10:11:33.628Z,993.48
2017-09-09T10:12:33.629Z,993.42
2017-09-09T10:13:33.632Z,993.46
2017-09-09T10:14:33.633Z,993.45
2017-09-09T10:15:33.636Z,993.40
2017-09-09T10:16:33.636Z,993.47
2017-09-09T10:17:33.637Z,993.44
2017-09-09T10:18:33.638Z,993.47
2017-09-09T10:19:33.639Z,993.41
2017-09-09T10:20:33.641Z,993.42
2017-09-09T10:21:33.637Z,993.41
2017-09-09T10:22:33.639Z,993.41
2017-09-09T10:23:33.640Z,993.41
2017-09-09T10:24:33.644Z,993.39
2017-09-09T10:25:33.646Z,993.46
2017-09-09T10:26:33.647Z,993.44
2017-09-09T10:27:33.648Z,993.42
2017-09-09T10:28:33.645Z,993.38
2017-09-09T10:29:33.644Z,993.43
2017-09-09T10:30:33.646Z,993.48
2017-09-09T10:31:33.645Z,993.41
2017-09-09T10:32:33.645Z,993.50
2017-09-09T10:33:33.648Z,993.46
2017-09-09T10:34:33.646Z,993.46
2017-09-09T10:35:33.649Z,993.40
2017-09-09T10:36:33.651Z,993.35
2017-09-09T10:37:33.651Z,993.39
2017-09-09T10:38:33.652Z,993.37
2017-09-09T10:39:33.653Z,993.37
2017-09-09T10:40:33.652Z,993.40
2017-09-09T10:41:33.651Z,993.43
2017-09-09T10:42:33.654Z,993.44
2017-09-09T10:43:33.650Z,993.41
2017-09-09T10:44:33.643Z,993.42
2017-09-09T10:45:33.645Z,993.38
2017-09-09T10:46:33.642Z,993.40
2017-09-09T10:47:33.641Z,993.42
2017-09-09T10:48:33.640Z,993.41
2017-09-09T10:49:33.638Z,993.44
2017-09-09T10:50:33.637Z,993.40
2017-09-09T10:51:33.634Z,993.40
2017-09-09T10:52:33.641Z,993.36
2017-09-09T10:53:33.634Z,993.38
2017-09-09T10:54:33.633Z,993.42
2017-09-09T10:55:33.632Z,993.42
2017-09-09T10:56:33.628Z,993.39
2017-09-09T10:57:33.626Z,993.42
2017-09-09T10:58:33.624Z,993.39
2017-09-09T10:59:33.620Z,993.38
2017-09-09T11:00:33.613Z,993.32
2017-09-09T11:01:33.610Z,993.35
2017-09-09T11:02:33.608Z,993.23
2017-09-09T11:03:33.606Z,993.28
2017-09-09T11:04:33.602Z,993.27
2017-09-09T11:05:33.599Z,993.26
2017-09-09T11:06:33.595Z,993.29
2017-09-09T11:07:33.593Z,993.36
2017-09-09T11:08:33.592Z,993.45
2017-09-09T11:09:33.590Z,993.45
2017-09-09T11:10:33.586Z,993.58
2017-09-09T11:11:33.582Z,993.60
2017-09-09T11:12:33.578Z,993.67
2017-09-09T11:13:33.575Z,993.64
2017-09-09T11:14:33.572Z,993.67
2017-09-09T11:15:33.569Z,993.69
2017-09-09T11:16:33.561Z,993.69
2017-09-09T11:17:33.557Z,993.69
2017-09-09T11:18:33.555Z,993.63
2017-09-09T11:19:33.554Z,993.66
2017-09-09T11:20:33.549Z,993.61
2017-09-09T11:21:33.548Z,993.68
2017-09-09T11:22:33.545Z,993.64
2017-09-09T11:23:33.542Z,993.72
2017-09-09T11:24:33.545Z,993.71
2017-09-09T11:25:33.543Z,993.74
2017-09-09T11:26:33.545Z,993.69
2017-09-09T11:27:33.540Z,993.78
2017-09-09T11:28:33.533Z,993.65
2017-09-09T11:29:33.533Z,993.63
2017-09-09T11:30:33.531Z,993.64
2017-09-09T11:31:33.532Z,993.58
2017-09-09T11:32:33.534Z,993.58
2017-09-09T11:33:33.532Z,993.57
2017-09-09T11:34:33.531Z,993.50
2017-09-09T11:35:33.530Z,993.50
2017-09-09T11:36:33.533Z,993.51
2017-09-09T11:37:33.532Z,993.51
2017-09-09T11:38:33.528Z,993.51
2017-09-09T11:39:33.527Z,993.48
2017-09-09T11:40:33.520Z,993.47
2017-09-09T11:41:33.520Z,993.50
2017-09-09T11:42:33.519Z,993.61
2017-09-09T11:43:33.517Z,993.64
2017-09-09T11:44:33.518Z,993.66
2017-09-09T11:45:33.514Z,993.68
2017-09-09T11:46:33.513Z,993.66
2017-09-09T11:47:33.513Z,993.65
2017-09-09T11:48:33.514Z,993.67
2017-09-09T11:49:33.512Z,993.69
2017-09-09T11:50:33.512Z,993.75
2017-09-09T11:51:33.513Z,993.69
2017-09-09T11:52:33.508Z,993.71
2017-09-09T11:53:33.507Z,993.74
2017-09-09T11:55:07.723Z,993.71
2017-09-09T11:56:07.722Z,993.77
2017-09-09T11:57:07.718Z,993.76
2017-09-09T11:58:07.721Z,993.76
2017-09-09T11:59:07.721Z,993.70
2017-09-09T12:00:07.719Z,993.66
2017-09-09T12:01:07.717Z,993.66
2017-09-09T12:02:07.716Z,993.67
2017-09-09T12:03:07.716Z,993.68
2017-09-09T12:04:07.721Z,993.66
2017-09-09T12:05:07.711Z,993.74
2017-09-09T12:06:07.706Z,993.85
2017-09-09T12:07:07.705Z,993.82
2017-09-09T12:08:07.703Z,993.88
2017-09-09T12:09:07.701Z,993.90
2017-09-09T12:10:07.699Z,993.92
2017-09-09T12:11:07.699Z,993.97
2017-09-09T12:12:07.696Z,993.95
2017-09-09T12:13:07.695Z,993.85
2017-09-09T12:14:07.697Z,993.87
2017-09-09T12:15:07.698Z,993.86
2017-09-09T12:16:07.695Z,993.79
2017-09-09T12:17:07.693Z,993.83
2017-09-09T12:18:07.692Z,993.86
2017-09-09T12:19:07.691Z,993.86
2017-09-09T12:20:07.711Z,993.90
2017-09-09T12:21:07.689Z,993.98
2017-09-09T12:22:07.685Z,993.94
2017-09-09T12:23:07.682Z,993.99
2017-09-09T12:24:07.682Z,994.00
2017-09-09T12:25:07.679Z,993.96
2017-09-09T12:26:07.678Z,993.93
2017-09-09T12:27:07.678Z,993.98
2017-09-09T12:28:07.675Z,994.05
2017-09-09T12:29:07.674Z,994.05